createdAt,value
2018-08-13T00:01:32.441Z,3.90
2018-08-13T00:04:01.281Z,3.60
2018-08-13T00:06:30.083Z,3.60
2018-08-13T00:08:59.267Z,4.00
2018-08-13T00:11:28.057Z,4.07
2018-08-13T00:13:56.850Z,3.93
2018-08-13T00:16:25.637Z,3.53
2018-08-13T00:18:54.523Z,3.70
2018-08-13T00:21:23.281Z,3.80
2018-08-13T00:23:52.461Z,3.50
2018-08-13T00:26:21.271Z,3.33
2018-08-13T00:31:46.681Z,3.80
2018-08-13T00:34:15.731Z,3.03
2018-08-13T00:36:44.781Z,3.50
2018-08-13T00:39:14.018Z,3.10
2018-08-13T00:41:42.960Z,3.43
2018-08-13T00:44:11.825Z,3.53
2018-08-13T00:46:40.720Z,2.93
2018-08-13T00:49:09.545Z,3.57
2018-08-13T00:51:38.417Z,2.97
2018-08-13T00:54:07.217Z,3.87
2018-08-13T00:56:36.018Z,3.53
2018-08-13T00:59:04.872Z,3.63
2018-08-13T01:01:33.833Z,3.47
2018-08-13T01:04:02.653Z,4.07
2018-08-13T01:06:31.449Z,3.50
2018-08-13T01:09:00.266Z,3.90
2018-08-13T01:11:29.097Z,3.87
2018-08-13T01:13:58.013Z,4.00
2018-08-13T01:16:27.076Z,3.80
2018-08-13T01:18:55.917Z,3.80
2018-08-13T01:21:24.909Z,3.67
2018-08-13T01:23:53.777Z,4.00
2018-08-13T01:26:22.658Z,3.83
2018-08-13T01:28:51.614Z,4.20
2018-08-13T01:31:20.495Z,3.77
2018-08-13T01:33:49.514Z,4.17
2018-08-13T01:36:18.332Z,4.10
2018-08-13T01:38:47.148Z,3.80
2018-08-13T01:41:16.060Z,3.77
2018-08-13T01:43:44.838Z,3.87
2018-08-13T01:46:13.737Z,3.83
2018-08-13T01:48:42.524Z,3.70
2018-08-13T01:51:11.459Z,3.13
2018-08-13T01:53:40.237Z,4.30
2018-08-13T01:56:09.089Z,3.50
2018-08-13T01:58:37.917Z,3.47
2018-08-13T02:01:06.892Z,3.30
2018-08-13T02:03:35.879Z,3.30
2018-08-13T02:06:04.673Z,3.57
2018-08-13T02:08:33.633Z,3.63
2018-08-13T02:11:02.679Z,3.27
2018-08-13T02:13:31.492Z,3.63
2018-08-13T02:16:00.326Z,3.77
2018-08-13T02:18:29.350Z,3.87
2018-08-13T02:20:58.326Z,3.60
2018-08-13T02:23:27.161Z,3.83
2018-08-13T02:25:56.081Z,3.60
2018-08-13T02:28:25.021Z,3.07
2018-08-13T02:30:53.837Z,3.60
2018-08-13T02:33:22.748Z,3.90
2018-08-13T02:35:51.661Z,4.00
2018-08-13T02:38:20.509Z,4.07
2018-08-13T02:40:49.337Z,2.93
2018-08-13T02:43:18.469Z,3.47
2018-08-13T02:45:47.261Z,3.70
2018-08-13T02:48:16.052Z,4.13
2018-08-13T02:50:44.927Z,3.17
2018-08-13T02:53:13.729Z,3.17
2018-08-13T02:55:42.729Z,3.30
2018-08-13T02:58:11.570Z,3.40
2018-08-13T03:00:40.301Z,3.63
2018-08-13T03:03:09.162Z,3.33
2018-08-13T03:05:44.749Z,3.67
2018-08-13T03:08:13.561Z,3.20
2018-08-13T03:10:42.565Z,3.23
2018-08-13T03:13:11.402Z,3.17
2018-08-13T03:15:40.248Z,3.30
2018-08-13T03:18:09.225Z,3.33
2018-08-13T03:20:38.061Z,2.97
2018-08-13T03:23:07.275Z,3.30
2018-08-13T03:25:36.061Z,3.57
2018-08-13T03:28:04.888Z,3.13
2018-08-13T03:30:33.774Z,3.33
2018-08-13T03:33:02.561Z,3.20
2018-08-13T03:35:31.370Z,3.33
2018-08-13T03:38:00.177Z,3.00
2018-08-13T03:40:29.409Z,3.20
2018-08-13T03:42:58.197Z,3.40
2018-08-13T03:45:27.007Z,3.57
2018-08-13T03:47:55.840Z,3.80
2018-08-13T03:50:24.948Z,3.60
2018-08-13T03:52:53.801Z,4.27
2018-08-13T03:55:22.574Z,3.23
2018-08-13T03:57:51.393Z,3.63
2018-08-13T04:00:20.397Z,3.57
2018-08-13T04:02:49.189Z,3.83
2018-08-13T04:05:17.977Z,3.63
2018-08-13T04:07:46.809Z,3.70
2018-08-13T04:10:16.057Z,3.70
2018-08-13T04:12:44.907Z,3.57
2018-08-13T04:15:14.665Z,4.23
2018-08-13T04:17:44.457Z,3.03
2018-08-13T04:20:14.510Z,3.90
2018-08-13T04:22:44.046Z,3.47
2018-08-13T04:25:12.986Z,3.67
2018-08-13T04:27:42.209Z,3.80
2018-08-13T04:30:13.525Z,4.10
2018-08-13T04:32:43.085Z,3.33
2018-08-13T04:35:11.824Z,3.33
2018-08-13T04:37:41.586Z,3.73
2018-08-13T04:40:12.657Z,3.07
2018-08-13T04:42:42.821Z,3.33
2018-08-13T04:45:11.912Z,3.50
2018-08-13T04:47:44.766Z,3.27
2018-08-13T04:50:13.584Z,3.20
2018-08-13T04:52:42.585Z,3.90
2018-08-13T04:55:11.569Z,3.70
2018-08-13T04:57:40.578Z,3.73
2018-08-13T05:00:09.865Z,3.10
2018-08-13T05:02:39.149Z,3.70
2018-08-13T05:05:09.389Z,3.43
2018-08-13T05:07:38.531Z,3.50
2018-08-13T05:10:08.697Z,3.50
2018-08-13T05:12:37.679Z,3.27
2018-08-13T05:15:07.438Z,3.40
2018-08-13T05:17:36.221Z,3.80
2018-08-13T05:20:05.334Z,7.93
2018-08-13T05:22:34.230Z,4.93
2018-08-13T05:25:03.237Z,3.53
2018-08-13T05:27:32.020Z,3.70
2018-08-13T05:30:00.940Z,3.20
2018-08-13T05:32:29.723Z,3.70
2018-08-13T05:34:58.525Z,3.07
2018-08-13T05:37:27.297Z,3.37
2018-08-13T05:39:56.145Z,4.03
2018-08-13T05:42:24.958Z,3.63
2018-08-13T05:44:53.754Z,3.53
2018-08-13T05:47:22.564Z,3.70
2018-08-13T05:49:51.367Z,2.67
2018-08-13T05:52:20.121Z,3.27
2018-08-13T05:54:49.182Z,3.20
2018-08-13T05:57:17.980Z,3.23
2018-08-13T05:59:46.872Z,3.77
2018-08-13T06:02:16.789Z,3.27
2018-08-13T06:04:45.584Z,3.10
2018-08-13T06:07:14.543Z,3.90
2018-08-13T06:09:43.481Z,4.57
2018-08-13T06:12:12.310Z,3.80
2018-08-13T06:14:41.177Z,4.33
2018-08-13T06:17:09.964Z,3.77
2018-08-13T06:19:38.845Z,3.90
2018-08-13T06:22:08.397Z,3.83
2018-08-13T06:24:37.514Z,4.10
2018-08-13T06:27:06.617Z,3.30
2018-08-13T06:29:36.157Z,3.60
2018-08-13T06:32:04.959Z,3.47
2018-08-13T06:34:33.843Z,3.83
2018-08-13T06:37:02.848Z,3.60
2018-08-13T06:39:31.633Z,4.00
2018-08-13T06:42:00.477Z,4.10
2018-08-13T06:44:29.394Z,3.77
2018-08-13T06:46:58.369Z,4.13
2018-08-13T06:49:27.353Z,3.40
2018-08-13T06:51:56.197Z,4.00
2018-08-13T06:54:25.280Z,3.37
2018-08-13T06:56:55.305Z,3.73
2018-08-13T06:59:24.217Z,3.60
2018-08-13T07:01:52.997Z,3.90
2018-08-13T07:04:22.373Z,3.67
2018-08-13T07:06:51.681Z,4.40
2018-08-13T14:05:13.804Z,2.30
2018-08-13T14:07:42.906Z,2.47
2018-08-13T14:10:14.310Z,2.40
2018-08-13T14:12:44.444Z,2.00
2018-08-13T14:15:14.829Z,2.00
2018-08-13T14:17:44.430Z,2.07
2018-08-13T14:20:13.340Z,2.17
2018-08-13T14:22:42.299Z,2.20
2018-08-13T14:25:12.534Z,2.03
2018-08-13T14:27:41.513Z,1.97
2018-08-13T14:30:14.037Z,2.00
2018-08-13T14:32:42.901Z,2.00
2018-08-13T14:35:11.738Z,2.30
2018-08-13T14:37:41.014Z,1.90
2018-08-13T14:40:11.446Z,2.20
2018-08-13T14:42:40.433Z,2.60
2018-08-13T14:45:11.099Z,2.50
2018-08-13T14:47:40.794Z,2.60
2018-08-13T14:50:10.848Z,2.20
2018-08-13T14:52:40.845Z,2.40
2018-08-13T14:57:38.094Z,2.50
2018-08-13T15:00:33.729Z,2.10
2018-08-13T15:03:02.521Z,2.27
2018-08-13T15:05:31.559Z,2.60
2018-08-13T15:08:00.368Z,2.40
2018-08-13T15:10:29.235Z,2.30
2018-08-13T15:12:58.290Z,2.43
2018-08-13T15:15:27.030Z,2.47
2018-08-13T15:17:56.370Z,2.47
2018-08-13T15:20:28.118Z,2.70
2018-08-13T15:22:57.102Z,2.40
2018-08-13T15:25:26.632Z,2.17
2018-08-13T15:27:55.615Z,2.23
2018-08-13T15:30:24.832Z,2.67
2018-08-13T15:32:54.175Z,2.60
2018-08-13T15:35:23.013Z,2.47
2018-08-13T15:37:52.014Z,3.00
2018-08-13T15:40:21.131Z,2.83
2018-08-13T15:42:49.981Z,3.10
2018-08-13T15:45:22.070Z,2.97
2018-08-13T15:47:51.175Z,3.43
2018-08-13T15:50:20.990Z,4.30
2018-08-13T15:52:50.426Z,3.43
2018-08-13T15:55:19.395Z,4.27
2018-08-13T15:57:48.363Z,4.30
2018-08-13T16:00:20.505Z,3.87
2018-08-13T16:02:49.832Z,3.80
2018-08-13T16:05:18.829Z,4.10
2018-08-13T16:07:48.262Z,4.13
2018-08-13T16:10:17.733Z,4.87
2018-08-13T16:12:46.851Z,4.10
2018-08-13T16:15:15.998Z,4.93
2018-08-13T16:17:45.025Z,5.27
2018-08-13T16:20:15.853Z,4.93
2018-08-13T16:22:45.588Z,5.10
2018-08-13T16:25:14.756Z,5.20
2018-08-13T16:27:44.353Z,5.13
2018-08-13T16:30:17.460Z,5.27
2018-08-13T16:32:47.286Z,5.50
2018-08-13T16:35:16.684Z,5.20
2018-08-13T16:37:46.065Z,6.10
2018-08-13T16:40:15.685Z,6.20
2018-08-13T16:42:44.460Z,6.10
2018-08-13T16:45:14.326Z,6.47
2018-08-13T16:47:43.161Z,6.43
2018-08-13T16:50:15.223Z,5.97
2018-08-13T16:52:44.113Z,6.20
2018-08-13T16:55:13.370Z,6.70
2018-08-13T16:57:43.341Z,5.50
2018-08-13T17:03:19.807Z,6.78
2018-08-13T17:05:48.629Z,6.23
2018-08-13T17:08:17.505Z,5.80
2018-08-13T17:10:46.863Z,6.17
2018-08-13T17:13:15.844Z,5.80
2018-08-13T17:15:46.491Z,5.40
2018-08-13T17:18:16.561Z,5.60
2018-08-13T17:20:46.214Z,5.60
2018-08-13T17:23:15.074Z,5.23
2018-08-13T17:25:44.041Z,5.67
2018-08-13T17:28:12.985Z,6.30
2018-08-13T17:30:41.697Z,5.87
2018-08-13T17:33:11.991Z,6.33
2018-08-13T17:35:40.948Z,7.07
2018-08-13T17:38:11.770Z,6.37
2018-08-13T17:40:41.393Z,6.87
2018-08-13T17:43:11.601Z,5.97
2018-08-13T17:45:40.915Z,6.53
2018-08-13T17:48:11.501Z,5.90
2018-08-13T17:50:40.481Z,5.87
2018-08-13T17:53:10.114Z,5.90
2018-08-13T17:55:39.045Z,5.80
2018-08-13T17:58:08.294Z,6.87
2018-08-13T18:00:37.101Z,6.60
2018-08-13T18:03:06.130Z,6.10
2018-08-13T18:05:35.081Z,5.37
2018-08-13T18:08:03.921Z,6.40
2018-08-13T18:10:34.249Z,5.73
2018-08-13T18:13:10.027Z,6.27
2018-08-13T18:15:41.099Z,5.67
2018-08-13T18:18:10.029Z,5.83
2018-08-13T18:20:38.857Z,6.13
2018-08-13T18:23:07.681Z,6.17
2018-08-13T18:25:36.526Z,6.10
2018-08-13T18:28:05.336Z,5.83
2018-08-13T18:30:34.374Z,5.90
2018-08-13T18:33:03.494Z,6.20
2018-08-13T18:35:32.621Z,6.20
2018-08-13T18:38:01.940Z,5.87
2018-08-13T18:40:32.696Z,5.20
2018-08-13T18:43:01.651Z,5.40
2018-08-13T18:45:30.499Z,6.23
2018-08-13T18:47:59.797Z,6.10
2018-08-13T18:50:28.557Z,5.90
2018-08-13T18:52:57.360Z,5.90
2018-08-13T18:59:40.932Z,4.53
2018-08-13T19:02:35.533Z,3.37
2018-08-13T19:05:05.863Z,3.93
2018-08-13T19:07:35.712Z,4.20
2018-08-13T19:10:06.842Z,4.27
2018-08-13T19:12:36.257Z,3.77
2018-08-13T19:15:07.380Z,3.97
2018-08-13T19:17:36.732Z,3.80
2018-08-13T19:20:07.459Z,3.80
2018-08-13T19:22:36.774Z,3.67
2018-08-13T19:25:07.664Z,3.30
2018-08-13T19:27:37.457Z,3.23
2018-08-13T19:30:07.496Z,3.30
2018-08-13T19:32:37.329Z,5.63
2018-08-13T19:35:07.530Z,8.10
2018-08-13T19:37:36.729Z,7.40
2018-08-13T19:40:08.679Z,8.73
2018-08-13T19:42:37.984Z,8.63
2018-08-13T19:45:08.570Z,7.53
2018-08-13T19:47:37.919Z,11.53
2018-08-13T19:50:08.664Z,6.30
2018-08-13T19:52:38.281Z,8.03
2018-08-13T19:55:07.738Z,7.63
2018-08-13T19:57:36.845Z,8.13
2018-08-13T20:00:13.783Z,4.90
2018-08-13T20:02:43.831Z,6.50
2018-08-13T20:05:13.115Z,9.67
2018-08-13T20:07:42.529Z,9.50
2018-08-13T20:10:14.234Z,7.60
2018-08-13T20:12:44.702Z,8.63
2018-08-13T20:15:14.353Z,8.13
2018-08-13T20:17:44.252Z,3.90
2018-08-13T20:20:18.140Z,11.57
2018-08-13T20:22:48.310Z,12.53
2018-08-13T20:25:19.306Z,10.03
2018-08-13T20:27:49.103Z,8.80
2018-08-13T20:30:19.883Z,12.03
2018-08-13T20:32:50.143Z,10.23
2018-08-13T20:35:19.287Z,9.50
2018-08-13T20:37:48.711Z,10.90
2018-08-13T20:40:19.119Z,8.67
2018-08-13T20:42:49.081Z,4.47
2018-08-13T20:45:20.133Z,8.17
2018-08-13T20:47:49.726Z,10.57
2018-08-13T20:50:23.829Z,9.50
2018-08-13T20:52:53.775Z,4.20
2018-08-13T20:55:27.392Z,5.43
2018-08-13T20:57:56.475Z,9.80
2018-08-13T21:00:27.354Z,8.50
2018-08-13T21:02:56.478Z,8.40
2018-08-13T21:05:25.662Z,7.00
2018-08-13T21:07:54.956Z,7.53
2018-08-13T21:10:24.969Z,12.63
2018-08-13T21:12:54.614Z,5.97
2018-08-13T21:15:23.850Z,10.77
2018-08-13T21:17:53.289Z,8.37
2018-08-13T21:20:25.438Z,11.17
2018-08-13T21:22:55.397Z,9.87
2018-08-13T21:25:25.229Z,5.60
2018-08-13T21:27:54.930Z,7.27
2018-08-13T21:30:24.930Z,6.43
2018-08-13T21:32:54.311Z,6.50
2018-08-13T21:35:25.055Z,9.87
2018-08-13T21:37:54.777Z,8.27
2018-08-13T21:40:24.887Z,12.30
2018-08-13T21:42:54.602Z,8.53
2018-08-13T21:45:23.952Z,8.63
2018-08-13T21:47:54.351Z,11.73
2018-08-13T21:50:24.385Z,13.83
2018-08-13T21:52:54.385Z,6.03
2018-08-13T21:55:25.204Z,14.60
2018-08-13T21:57:54.578Z,17.43
2018-08-13T22:00:27.548Z,15.90
2018-08-13T22:03:00.923Z,16.27
2018-08-13T22:05:30.597Z,16.27
2018-08-13T22:08:00.504Z,13.63
2018-08-13T22:10:30.817Z,22.20
2018-08-13T22:13:01.426Z,19.60
2018-08-13T22:15:32.890Z,24.37
2018-08-13T22:18:05.438Z,24.90
2018-08-13T22:20:36.451Z,27.13
2018-08-13T22:23:07.245Z,26.20
2018-08-13T22:25:40.020Z,14.50
2018-08-13T22:28:11.044Z,17.43
2018-08-13T22:30:40.793Z,22.13
2018-08-13T22:33:11.901Z,15.90
2018-08-13T22:35:41.226Z,13.83
2018-08-13T22:38:10.655Z,16.90
2018-08-13T22:40:40.604Z,20.73
2018-08-13T22:43:10.011Z,22.53
2018-08-13T22:45:39.710Z,24.03
2018-08-13T22:48:09.013Z,16.33
2018-08-13T22:50:38.902Z,15.73
2018-08-13T22:53:08.516Z,19.93
2018-08-13T22:55:37.835Z,16.80
2018-08-13T22:58:06.961Z,24.00
2018-08-13T23:00:36.453Z,21.53
2018-08-13T23:03:06.293Z,23.70
2018-08-13T23:05:35.549Z,26.83
2018-08-13T23:08:05.211Z,24.80
2018-08-13T23:10:35.347Z,28.93
2018-08-13T23:13:05.728Z,27.63
2018-08-13T23:15:35.588Z,27.50
2018-08-13T23:18:05.683Z,23.07
2018-08-13T23:20:35.313Z,18.50
2018-08-13T23:23:04.621Z,17.63
2018-08-13T23:25:35.269Z,21.37
2018-08-13T23:28:06.831Z,23.93
2018-08-13T23:30:37.385Z,30.00
2018-08-13T23:33:07.657Z,20.00
2018-08-13T23:35:37.760Z,32.73
2018-08-13T23:38:07.707Z,27.97
2018-08-13T23:40:37.268Z,30.47
2018-08-13T23:43:06.404Z,29.50
2018-08-13T23:45:35.617Z,26.93
2018-08-13T23:48:05.103Z,27.23
2018-08-13T23:50:35.308Z,24.67
2018-08-13T23:53:04.748Z,35.27
2018-08-13T23:55:37.477Z,25.13
2018-08-13T23:58:10.461Z,30.77
